sensor_id;sensor_type;location;lat;lon;timestamp;P1;durP1;ratioP1;P2;durP2;ratioP2
41446;SDS011;27185;52.040;4.490;2023-06-22T00:00:16;23.05;;;15.07;;
41446;SDS011;27185;52.040;4.490;2023-06-22T00:03:02;21.73;;;15.02;;
41446;SDS011;27185;52.040;4.490;2023-06-22T00:05:47;19.95;;;14.00;;
41446;SDS011;27185;52.040;4.490;2023-06-22T00:08:33;19.55;;;13.52;;
41446;SDS011;27185;52.040;4.490;2023-06-22T00:11:19;21.90;;;13.82;;
41446;SDS011;27185;52.040;4.490;2023-06-22T00:14:05;18.90;;;14.10;;
41446;SDS011;27185;52.040;4.490;2023-06-22T00:16:50;22.13;;;14.63;;
41446;SDS011;27185;52.040;4.490;2023-06-22T00:19:42;19.05;;;14.07;;
41446;SDS011;27185;52.040;4.490;2023-06-22T00:22:27;24.52;;;15.10;;
41446;SDS011;27185;52.040;4.490;2023-06-22T00:25:13;23.48;;;15.23;;
41446;SDS011;27185;52.040;4.490;2023-06-22T00:27:59;26.58;;;17.63;;
41446;SDS011;27185;52.040;4.490;2023-06-22T00:30:44;26.27;;;17.73;;
41446;SDS011;27185;52.040;4.490;2023-06-22T00:33:30;24.60;;;16.30;;
41446;SDS011;27185;52.040;4.490;2023-06-22T00:36:16;20.05;;;14.98;;
41446;SDS011;27185;52.040;4.490;2023-06-22T00:39:04;22.75;;;16.75;;
41446;SDS011;27185;52.040;4.490;2023-06-22T00:41:50;22.70;;;15.10;;
41446;SDS011;27185;52.040;4.490;2023-06-22T00:44:36;25.77;;;15.88;;
41446;SDS011;27185;52.040;4.490;2023-06-22T00:47:22;22.30;;;15.35;;
41446;SDS011;27185;52.040;4.490;2023-06-22T00:50:08;23.23;;;16.23;;
41446;SDS011;27185;52.040;4.490;2023-06-22T00:52:55;23.90;;;17.03;;
41446;SDS011;27185;52.040;4.490;2023-06-22T00:55:42;23.15;;;17.23;;
41446;SDS011;27185;52.040;4.490;2023-06-22T00:58:30;23.30;;;15.50;;
41446;SDS011;27185;52.040;4.490;2023-06-22T01:01:15;24.45;;;16.55;;
41446;SDS011;27185;52.040;4.490;2023-06-22T01:04:02;23.02;;;16.38;;
41446;SDS011;27185;52.040;4.490;2023-06-22T01:06:59;25.95;;;16.85;;
41446;SDS011;27185;52.040;4.490;2023-06-22T01:09:57;24.98;;;16.88;;
41446;SDS011;27185;52.040;4.490;2023-06-22T01:13:13;27.77;;;17.30;;
41446;SDS011;27185;52.040;4.490;2023-06-22T01:16:14;27.35;;;17.38;;
41446;SDS011;27185;52.040;4.490;2023-06-22T01:19:21;22.27;;;17.00;;
41446;SDS011;27185;52.040;4.490;2023-06-22T01:22:30;23.77;;;16.50;;
41446;SDS011;27185;52.040;4.490;2023-06-22T01:25:28;26.95;;;16.63;;
41446;SDS011;27185;52.040;4.490;2023-06-22T01:28:31;25.75;;;17.05;;
41446;SDS011;27185;52.040;4.490;2023-06-22T01:31:27;28.77;;;17.48;;
41446;SDS011;27185;52.040;4.490;2023-06-22T01:34:14;27.88;;;18.73;;
41446;SDS011;27185;52.040;4.490;2023-06-22T01:37:02;30.25;;;20.80;;
41446;SDS011;27185;52.040;4.490;2023-06-22T01:39:48;33.38;;;21.83;;
41446;SDS011;27185;52.040;4.490;2023-06-22T01:42:35;29.35;;;19.55;;
41446;SDS011;27185;52.040;4.490;2023-06-22T01:45:22;29.95;;;19.50;;
41446;SDS011;27185;52.040;4.490;2023-06-22T01:48:08;33.03;;;21.80;;
41446;SDS011;27185;52.040;4.490;2023-06-22T01:50:55;30.40;;;21.85;;
41446;SDS011;27185;52.040;4.490;2023-06-22T01:53:40;32.30;;;22.02;;
41446;SDS011;27185;52.040;4.490;2023-06-22T01:56:26;30.98;;;22.33;;
41446;SDS011;27185;52.040;4.490;2023-06-22T01:59:14;29.58;;;20.67;;
41446;SDS011;27185;52.040;4.490;2023-06-22T02:02:08;29.60;;;19.25;;
41446;SDS011;27185;52.040;4.490;2023-06-22T02:04:59;29.15;;;20.00;;
41446;SDS011;27185;52.040;4.490;2023-06-22T02:07:52;26.75;;;19.85;;
41446;SDS011;27185;52.040;4.490;2023-06-22T02:10:45;33.40;;;21.55;;
41446;SDS011;27185;52.040;4.490;2023-06-22T02:13:33;32.38;;;21.38;;
41446;SDS011;27185;52.040;4.490;2023-06-22T02:16:19;33.03;;;19.50;;
41446;SDS011;27185;52.040;4.490;2023-06-22T02:19:05;30.67;;;20.88;;
41446;SDS011;27185;52.040;4.490;2023-06-22T02:21:51;31.75;;;20.42;;
41446;SDS011;27185;52.040;4.490;2023-06-22T02:24:36;35.20;;;20.73;;
41446;SDS011;27185;52.040;4.490;2023-06-22T02:27:22;30.65;;;21.67;;
41446;SDS011;27185;52.040;4.490;2023-06-22T02:30:08;32.38;;;21.10;;
41446;SDS011;27185;52.040;4.490;2023-06-22T02:32:54;32.88;;;21.73;;
41446;SDS011;27185;52.040;4.490;2023-06-22T02:35:43;32.80;;;21.73;;
41446;SDS011;27185;52.040;4.490;2023-06-22T02:38:32;31.42;;;21.85;;
41446;SDS011;27185;52.040;4.490;2023-06-22T02:41:21;33.90;;;22.77;;
41446;SDS011;27185;52.040;4.490;2023-06-22T02:44:06;32.20;;;21.83;;
41446;SDS011;27185;52.040;4.490;2023-06-22T02:46:52;31.00;;;20.23;;
41446;SDS011;27185;52.040;4.490;2023-06-22T02:49:39;37.27;;;23.13;;
41446;SDS011;27185;52.040;4.490;2023-06-22T02:52:24;40.28;;;24.73;;
41446;SDS011;27185;52.040;4.490;2023-06-22T02:55:10;37.88;;;24.52;;
41446;SDS011;27185;52.040;4.490;2023-06-22T02:57:56;37.03;;;24.38;;
41446;SDS011;27185;52.040;4.490;2023-06-22T03:00:44;33.30;;;22.73;;
41446;SDS011;27185;52.040;4.490;2023-06-22T03:03:30;36.95;;;24.23;;
41446;SDS011;27185;52.040;4.490;2023-06-22T03:06:15;35.67;;;24.10;;
41446;SDS011;27185;52.040;4.490;2023-06-22T03:09:02;41.00;;;25.40;;
41446;SDS011;27185;52.040;4.490;2023-06-22T03:11:49;37.95;;;24.85;;
41446;SDS011;27185;52.040;4.490;2023-06-22T03:14:35;38.38;;;25.20;;
41446;SDS011;27185;52.040;4.490;2023-06-22T03:17:20;40.25;;;25.38;;
41446;SDS011;27185;52.040;4.490;2023-06-22T03:20:06;35.25;;;24.00;;
41446;SDS011;27185;52.040;4.490;2023-06-22T03:22:54;35.90;;;25.08;;
41446;SDS011;27185;52.040;4.490;2023-06-22T03:25:40;38.28;;;26.45;;
41446;SDS011;27185;52.040;4.490;2023-06-22T03:28:29;35.75;;;25.52;;
41446;SDS011;27185;52.040;4.490;2023-06-22T03:31:15;36.72;;;23.58;;
41446;SDS011;27185;52.040;4.490;2023-06-22T03:34:01;38.78;;;24.67;;
41446;SDS011;27185;52.040;4.490;2023-06-22T03:36:46;37.35;;;24.48;;
41446;SDS011;27185;52.040;4.490;2023-06-22T03:39:32;40.08;;;24.88;;
41446;SDS011;27185;52.040;4.490;2023-06-22T03:42:17;36.97;;;25.35;;
41446;SDS011;27185;52.040;4.490;2023-06-22T03:45:03;37.78;;;25.40;;
41446;SDS011;27185;52.040;4.490;2023-06-22T03:47:49;41.33;;;28.27;;
41446;SDS011;27185;52.040;4.490;2023-06-22T03:50:35;41.50;;;25.90;;
41446;SDS011;27185;52.040;4.490;2023-06-22T03:53:21;43.00;;;26.88;;
41446;SDS011;27185;52.040;4.490;2023-06-22T03:56:06;41.20;;;27.38;;
41446;SDS011;27185;52.040;4.490;2023-06-22T03:58:52;41.50;;;27.08;;
41446;SDS011;27185;52.040;4.490;2023-06-22T04:01:38;39.25;;;26.30;;
41446;SDS011;27185;52.040;4.490;2023-06-22T04:04:23;41.05;;;27.13;;
41446;SDS011;27185;52.040;4.490;2023-06-22T04:07:09;40.65;;;27.60;;
41446;SDS011;27185;52.040;4.490;2023-06-22T04:09:54;40.63;;;28.50;;
41446;SDS011;27185;52.040;4.490;2023-06-22T04:12:40;39.15;;;26.27;;
41446;SDS011;27185;52.040;4.490;2023-06-22T04:15:25;44.53;;;27.52;;
41446;SDS011;27185;52.040;4.490;2023-06-22T04:18:11;34.55;;;23.00;;
41446;SDS011;27185;52.040;4.490;2023-06-22T04:20:58;40.38;;;26.67;;
41446;SDS011;27185;52.040;4.490;2023-06-22T04:23:44;41.05;;;26.08;;
41446;SDS011;27185;52.040;4.490;2023-06-22T04:26:30;35.80;;;24.50;;
41446;SDS011;27185;52.040;4.490;2023-06-22T04:29:21;43.15;;;25.80;;
41446;SDS011;27185;52.040;4.490;2023-06-22T04:32:14;40.92;;;25.95;;
41446;SDS011;27185;52.040;4.490;2023-06-22T04:35:00;38.28;;;25.67;;
41446;SDS011;27185;52.040;4.490;2023-06-22T04:37:46;37.13;;;24.30;;
41446;SDS011;27185;52.040;4.490;2023-06-22T04:40:33;37.15;;;25.65;;
41446;SDS011;27185;52.040;4.490;2023-06-22T04:43:20;32.03;;;23.73;;
41446;SDS011;27185;52.040;4.490;2023-06-22T04:46:06;39.38;;;25.08;;
41446;SDS011;27185;52.040;4.490;2023-06-22T04:48:51;40.22;;;25.42;;
41446;SDS011;27185;52.040;4.490;2023-06-22T04:51:38;37.63;;;24.83;;
41446;SDS011;27185;52.040;4.490;2023-06-22T04:54:25;34.33;;;24.10;;
41446;SDS011;27185;52.040;4.490;2023-06-22T04:57:11;34.42;;;22.95;;
41446;SDS011;27185;52.040;4.490;2023-06-22T04:59:57;33.42;;;23.10;;
41446;SDS011;27185;52.040;4.490;2023-06-22T05:02:46;31.58;;;22.63;;
41446;SDS011;27185;52.040;4.490;2023-06-22T05:05:32;28.98;;;21.75;;
41446;SDS011;27185;52.040;4.490;2023-06-22T05:08:17;29.77;;;20.77;;
41446;SDS011;27185;52.040;4.490;2023-06-22T05:11:03;28.35;;;18.88;;
41446;SDS011;27185;52.040;4.490;2023-06-22T05:13:48;28.27;;;18.77;;
41446;SDS011;27185;52.040;4.490;2023-06-22T05:16:34;26.80;;;19.73;;
41446;SDS011;27185;52.040;4.490;2023-06-22T05:19:20;23.88;;;17.63;;
41446;SDS011;27185;52.040;4.490;2023-06-22T05:22:06;25.05;;;18.38;;
41446;SDS011;27185;52.040;4.490;2023-06-22T05:24:51;27.02;;;18.85;;
41446;SDS011;27185;52.040;4.490;2023-06-22T05:27:37;35.92;;;25.13;;
41446;SDS011;27185;52.040;4.490;2023-06-22T05:30:25;28.77;;;19.60;;
41446;SDS011;27185;52.040;4.490;2023-06-22T05:33:12;24.08;;;17.15;;
41446;SDS011;27185;52.040;4.490;2023-06-22T05:35:57;22.40;;;15.60;;
41446;SDS011;27185;52.040;4.490;2023-06-22T05:38:43;21.90;;;15.25;;
41446;SDS011;27185;52.040;4.490;2023-06-22T05:41:28;21.38;;;15.90;;
41446;SDS011;27185;52.040;4.490;2023-06-22T05:44:14;22.85;;;15.05;;
41446;SDS011;27185;52.040;4.490;2023-06-22T05:47:00;22.20;;;14.85;;
41446;SDS011;27185;52.040;4.490;2023-06-22T05:49:45;20.48;;;13.63;;
41446;SDS011;27185;52.040;4.490;2023-06-22T05:52:31;16.58;;;11.95;;
41446;SDS011;27185;52.040;4.490;2023-06-22T05:55:17;18.30;;;13.80;;
41446;SDS011;27185;52.040;4.490;2023-06-22T05:58:03;20.02;;;15.15;;
41446;SDS011;27185;52.040;4.490;2023-06-22T06:00:49;19.50;;;14.27;;
41446;SDS011;27185;52.040;4.490;2023-06-22T06:03:35;19.23;;;13.55;;
41446;SDS011;27185;52.040;4.490;2023-06-22T06:06:26;20.42;;;13.43;;
41446;SDS011;27185;52.040;4.490;2023-06-22T06:09:14;19.85;;;14.68;;
41446;SDS011;27185;52.040;4.490;2023-06-22T06:11:59;23.48;;;16.58;;
41446;SDS011;27185;52.040;4.490;2023-06-22T06:14:47;19.15;;;13.70;;
41446;SDS011;27185;52.040;4.490;2023-06-22T06:17:33;19.40;;;15.07;;
41446;SDS011;27185;52.040;4.490;2023-06-22T06:20:19;21.27;;;13.85;;
41446;SDS011;27185;52.040;4.490;2023-06-22T06:23:06;21.75;;;15.88;;
41446;SDS011;27185;52.040;4.490;2023-06-22T06:25:52;22.77;;;14.13;;
41446;SDS011;27185;52.040;4.490;2023-06-22T06:28:37;17.55;;;13.02;;
41446;SDS011;27185;52.040;4.490;2023-06-22T06:31:23;17.55;;;14.05;;
41446;SDS011;27185;52.040;4.490;2023-06-22T06:34:09;17.63;;;13.57;;
41446;SDS011;27185;52.040;4.490;2023-06-22T06:36:54;21.23;;;13.85;;
41446;SDS011;27185;52.040;4.490;2023-06-22T06:39:40;15.23;;;11.55;;
41446;SDS011;27185;52.040;4.490;2023-06-22T06:42:26;19.10;;;12.10;;
41446;SDS011;27185;52.040;4.490;2023-06-22T06:45:12;16.27;;;12.82;;
41446;SDS011;27185;52.040;4.490;2023-06-22T06:48:00;16.48;;;11.63;;
41446;SDS011;27185;52.040;4.490;2023-06-22T06:50:45;13.75;;;11.07;;
41446;SDS011;27185;52.040;4.490;2023-06-22T06:53:31;13.50;;;11.10;;
41446;SDS011;27185;52.040;4.490;2023-06-22T06:56:16;16.73;;;12.57;;
41446;SDS011;27185;52.040;4.490;2023-06-22T06:59:02;16.52;;;10.88;;
41446;SDS011;27185;52.040;4.490;2023-06-22T07:01:48;15.35;;;11.38;;
41446;SDS011;27185;52.040;4.490;2023-06-22T07:04:33;14.82;;;11.18;;
41446;SDS011;27185;52.040;4.490;2023-06-22T07:07:19;16.92;;;10.50;;
41446;SDS011;27185;52.040;4.490;2023-06-22T07:10:05;11.65;;;8.68;;
41446;SDS011;27185;52.040;4.490;2023-06-22T07:12:51;10.23;;;8.63;;
41446;SDS011;27185;52.040;4.490;2023-06-22T07:15:37;10.77;;;8.60;;
41446;SDS011;27185;52.040;4.490;2023-06-22T07:18:23;9.50;;;7.25;;
41446;SDS011;27185;52.040;4.490;2023-06-22T07:21:09;8.20;;;6.75;;
41446;SDS011;27185;52.040;4.490;2023-06-22T07:23:54;9.15;;;7.18;;
41446;SDS011;27185;52.040;4.490;2023-06-22T07:26:41;10.10;;;6.75;;
41446;SDS011;27185;52.040;4.490;2023-06-22T07:29:30;7.03;;;5.60;;
41446;SDS011;27185;52.040;4.490;2023-06-22T07:32:17;7.40;;;5.82;;
41446;SDS011;27185;52.040;4.490;2023-06-22T07:35:02;6.75;;;5.57;;
41446;SDS011;27185;52.040;4.490;2023-06-22T07:37:49;7.53;;;5.25;;
41446;SDS011;27185;52.040;4.490;2023-06-22T07:40:35;6.40;;;4.75;;
41446;SDS011;27185;52.040;4.490;2023-06-22T07:43:21;6.45;;;4.80;;
41446;SDS011;27185;52.040;4.490;2023-06-22T07:46:06;7.72;;;5.53;;
41446;SDS011;27185;52.040;4.490;2023-06-22T07:48:52;11.25;;;5.55;;
41446;SDS011;27185;52.040;4.490;2023-06-22T07:51:38;6.82;;;5.13;;
41446;SDS011;27185;52.040;4.490;2023-06-22T07:54:23;8.05;;;5.10;;
41446;SDS011;27185;52.040;4.490;2023-06-22T07:57:09;7.57;;;5.28;;
41446;SDS011;27185;52.040;4.490;2023-06-22T07:59:55;6.20;;;5.13;;
41446;SDS011;27185;52.040;4.490;2023-06-22T08:02:41;6.88;;;5.47;;
41446;SDS011;27185;52.040;4.490;2023-06-22T08:05:27;7.25;;;4.55;;
41446;SDS011;27185;52.040;4.490;2023-06-22T08:08:13;4.47;;;3.65;;
41446;SDS011;27185;52.040;4.490;2023-06-22T08:10:59;5.13;;;3.57;;
41446;SDS011;27185;52.040;4.490;2023-06-22T08:13:45;5.20;;;2.72;;
41446;SDS011;27185;52.040;4.490;2023-06-22T08:16:30;3.78;;;2.75;;
41446;SDS011;27185;52.040;4.490;2023-06-22T08:19:16;4.13;;;2.92;;
41446;SDS011;27185;52.040;4.490;2023-06-22T08:22:02;4.53;;;3.25;;
41446;SDS011;27185;52.040;4.490;2023-06-22T08:24:48;7.80;;;2.63;;
41446;SDS011;27185;52.040;4.490;2023-06-22T08:27:34;5.00;;;2.70;;
41446;SDS011;27185;52.040;4.490;2023-06-22T08:30:20;3.38;;;1.75;;
41446;SDS011;27185;52.040;4.490;2023-06-22T08:33:06;2.97;;;1.35;;
41446;SDS011;27185;52.040;4.490;2023-06-22T08:35:51;2.30;;;1.23;;
41446;SDS011;27185;52.040;4.490;2023-06-22T08:38:37;2.55;;;0.90;;
41446;SDS011;27185;52.040;4.490;2023-06-22T08:41:23;2.17;;;1.00;;
41446;SDS011;27185;52.040;4.490;2023-06-22T08:44:10;2.90;;;1.27;;
41446;SDS011;27185;52.040;4.490;2023-06-22T08:46:56;3.50;;;2.38;;
41446;SDS011;27185;52.040;4.490;2023-06-22T08:49:42;3.70;;;2.75;;
41446;SDS011;27185;52.040;4.490;2023-06-22T08:52:28;5.15;;;2.83;;
41446;SDS011;27185;52.040;4.490;2023-06-22T08:55:14;3.45;;;2.60;;
41446;SDS011;27185;52.040;4.490;2023-06-22T08:57:59;7.50;;;4.18;;
41446;SDS011;27185;52.040;4.490;2023-06-22T09:00:45;5.72;;;4.60;;
41446;SDS011;27185;52.040;4.490;2023-06-22T09:03:31;9.30;;;5.45;;
41446;SDS011;27185;52.040;4.490;2023-06-22T09:06:17;5.75;;;5.15;;
41446;SDS011;27185;52.040;4.490;2023-06-22T09:09:03;8.00;;;5.85;;
41446;SDS011;27185;52.040;4.490;2023-06-22T09:11:49;8.27;;;6.38;;
41446;SDS011;27185;52.040;4.490;2023-06-22T09:14:35;8.75;;;4.93;;
41446;SDS011;27185;52.040;4.490;2023-06-22T09:17:21;7.32;;;4.88;;
41446;SDS011;27185;52.040;4.490;2023-06-22T09:20:07;7.03;;;5.55;;
41446;SDS011;27185;52.040;4.490;2023-06-22T09:22:55;7.53;;;5.45;;
41446;SDS011;27185;52.040;4.490;2023-06-22T09:25:41;8.57;;;5.00;;
41446;SDS011;27185;52.040;4.490;2023-06-22T09:28:27;6.55;;;4.97;;
41446;SDS011;27185;52.040;4.490;2023-06-22T09:31:12;8.60;;;5.22;;
41446;SDS011;27185;52.040;4.490;2023-06-22T09:33:58;4.78;;;2.10;;
41446;SDS011;27185;52.040;4.490;2023-06-22T09:36:44;4.72;;;3.72;;
41446;SDS011;27185;52.040;4.490;2023-06-22T09:39:29;7.80;;;4.78;;
41446;SDS011;27185;52.040;4.490;2023-06-22T09:42:15;5.70;;;3.75;;
41446;SDS011;27185;52.040;4.490;2023-06-22T09:45:01;6.03;;;4.60;;
41446;SDS011;27185;52.040;4.490;2023-06-22T09:47:46;8.50;;;5.50;;
41446;SDS011;27185;52.040;4.490;2023-06-22T09:50:32;6.88;;;4.65;;
41446;SDS011;27185;52.040;4.490;2023-06-22T09:53:18;5.95;;;4.63;;
41446;SDS011;27185;52.040;4.490;2023-06-22T09:56:03;5.82;;;3.20;;
41446;SDS011;27185;52.040;4.490;2023-06-22T09:58:51;9.55;;;3.60;;
41446;SDS011;27185;52.040;4.490;2023-06-22T10:01:37;4.57;;;3.35;;
41446;SDS011;27185;52.040;4.490;2023-06-22T10:04:23;5.80;;;3.55;;
41446;SDS011;27185;52.040;4.490;2023-06-22T10:07:09;5.72;;;4.13;;
41446;SDS011;27185;52.040;4.490;2023-06-22T10:09:55;5.63;;;3.67;;
41446;SDS011;27185;52.040;4.490;2023-06-22T10:12:41;4.63;;;2.85;;
41446;SDS011;27185;52.040;4.490;2023-06-22T10:15:30;7.25;;;4.30;;
41446;SDS011;27185;52.040;4.490;2023-06-22T10:18:15;6.00;;;4.50;;
41446;SDS011;27185;52.040;4.490;2023-06-22T10:21:01;7.30;;;3.50;;
41446;SDS011;27185;52.040;4.490;2023-06-22T10:23:47;5.30;;;2.80;;
41446;SDS011;27185;52.040;4.490;2023-06-22T10:26:33;6.22;;;3.65;;
41446;SDS011;27185;52.040;4.490;2023-06-22T10:29:20;5.25;;;3.13;;
41446;SDS011;27185;52.040;4.490;2023-06-22T10:32:06;7.00;;;4.55;;
41446;SDS011;27185;52.040;4.490;2023-06-22T10:34:52;5.65;;;4.03;;
41446;SDS011;27185;52.040;4.490;2023-06-22T10:37:37;6.00;;;4.78;;
41446;SDS011;27185;52.040;4.490;2023-06-22T10:40:23;4.95;;;3.92;;
41446;SDS011;27185;52.040;4.490;2023-06-22T10:43:08;4.18;;;3.40;;
41446;SDS011;27185;52.040;4.490;2023-06-22T10:45:54;4.85;;;3.83;;
41446;SDS011;27185;52.040;4.490;2023-06-22T10:48:39;7.55;;;4.32;;
41446;SDS011;27185;52.040;4.490;2023-06-22T10:51:25;7.35;;;6.03;;
41446;SDS011;27185;52.040;4.490;2023-06-22T10:54:13;7.47;;;5.63;;
41446;SDS011;27185;52.040;4.490;2023-06-22T10:56:58;8.27;;;5.85;;
41446;SDS011;27185;52.040;4.490;2023-06-22T10:59:44;7.05;;;5.88;;
41446;SDS011;27185;52.040;4.490;2023-06-22T11:02:30;5.93;;;5.32;;
41446;SDS011;27185;52.040;4.490;2023-06-22T11:05:16;6.22;;;4.28;;
41446;SDS011;27185;52.040;4.490;2023-06-22T11:08:01;5.00;;;3.67;;
41446;SDS011;27185;52.040;4.490;2023-06-22T11:10:47;5.55;;;3.97;;
41446;SDS011;27185;52.040;4.490;2023-06-22T11:13:33;5.65;;;4.72;;
41446;SDS011;27185;52.040;4.490;2023-06-22T11:16:18;8.23;;;5.10;;
41446;SDS011;27185;52.040;4.490;2023-06-22T11:19:04;8.25;;;6.55;;
41446;SDS011;27185;52.040;4.490;2023-06-22T11:21:50;8.98;;;6.38;;
41446;SDS011;27185;52.040;4.490;2023-06-22T11:24:36;9.38;;;5.97;;
41446;SDS011;27185;52.040;4.490;2023-06-22T11:27:21;9.18;;;6.93;;
41446;SDS011;27185;52.040;4.490;2023-06-22T11:30:07;9.68;;;7.75;;
41446;SDS011;27185;52.040;4.490;2023-06-22T11:32:53;7.87;;;6.17;;
41446;SDS011;27185;52.040;4.490;2023-06-22T11:35:39;7.57;;;5.43;;
41446;SDS011;27185;52.040;4.490;2023-06-22T11:38:25;8.80;;;6.07;;
41446;SDS011;27185;52.040;4.490;2023-06-22T11:41:10;9.98;;;6.70;;
41446;SDS011;27185;52.040;4.490;2023-06-22T11:43:56;10.65;;;8.90;;
41446;SDS011;27185;52.040;4.490;2023-06-22T11:46:42;11.50;;;8.57;;
41446;SDS011;27185;52.040;4.490;2023-06-22T11:49:27;11.95;;;10.23;;
41446;SDS011;27185;52.040;4.490;2023-06-22T11:52:13;12.93;;;9.50;;
41446;SDS011;27185;52.040;4.490;2023-06-22T11:54:58;12.90;;;10.65;;
41446;SDS011;27185;52.040;4.490;2023-06-22T11:57:54;11.45;;;8.68;;
41446;SDS011;27185;52.040;4.490;2023-06-22T12:00:41;16.02;;;12.18;;
41446;SDS011;27185;52.040;4.490;2023-06-22T12:03:27;12.55;;;10.98;;
41446;SDS011;27185;52.040;4.490;2023-06-22T12:06:12;14.45;;;11.48;;
41446;SDS011;27185;52.040;4.490;2023-06-22T12:08:58;13.70;;;11.00;;
41446;SDS011;27185;52.040;4.490;2023-06-22T12:11:44;13.00;;;10.80;;
41446;SDS011;27185;52.040;4.490;2023-06-22T12:14:29;13.43;;;11.48;;
41446;SDS011;27185;52.040;4.490;2023-06-22T12:17:15;10.88;;;9.10;;
41446;SDS011;27185;52.040;4.490;2023-06-22T12:20:00;12.18;;;10.00;;
41446;SDS011;27185;52.040;4.490;2023-06-22T12:22:47;12.70;;;9.80;;
41446;SDS011;27185;52.040;4.490;2023-06-22T12:25:33;13.63;;;10.55;;
41446;SDS011;27185;52.040;4.490;2023-06-22T12:28:18;13.35;;;10.77;;
41446;SDS011;27185;52.040;4.490;2023-06-22T12:31:04;11.68;;;8.90;;
41446;SDS011;27185;52.040;4.490;2023-06-22T12:33:50;12.07;;;9.43;;
41446;SDS011;27185;52.040;4.490;2023-06-22T12:36:35;14.77;;;11.02;;
41446;SDS011;27185;52.040;4.490;2023-06-22T12:39:21;12.82;;;10.15;;
41446;SDS011;27185;52.040;4.490;2023-06-22T12:42:06;17.33;;;10.02;;
41446;SDS011;27185;52.040;4.490;2023-06-22T12:44:53;12.75;;;9.23;;
41446;SDS011;27185;52.040;4.490;2023-06-22T12:47:39;12.73;;;10.20;;
41446;SDS011;27185;52.040;4.490;2023-06-22T12:50:25;15.70;;;11.68;;
41446;SDS011;27185;52.040;4.490;2023-06-22T12:53:10;18.65;;;11.85;;
41446;SDS011;27185;52.040;4.490;2023-06-22T12:55:56;16.98;;;13.05;;
41446;SDS011;27185;52.040;4.490;2023-06-22T12:58:41;15.00;;;13.40;;
41446;SDS011;27185;52.040;4.490;2023-06-22T13:01:27;15.85;;;11.50;;
41446;SDS011;27185;52.040;4.490;2023-06-22T13:04:13;14.82;;;11.52;;
41446;SDS011;27185;52.040;4.490;2023-06-22T13:07:00;15.32;;;13.65;;
41446;SDS011;27185;52.040;4.490;2023-06-22T13:09:45;15.82;;;13.13;;
41446;SDS011;27185;52.040;4.490;2023-06-22T13:12:31;15.40;;;12.10;;
41446;SDS011;27185;52.040;4.490;2023-06-22T13:15:17;15.43;;;12.45;;
41446;SDS011;27185;52.040;4.490;2023-06-22T13:18:02;14.43;;;12.25;;
41446;SDS011;27185;52.040;4.490;2023-06-22T13:20:48;15.27;;;11.65;;
41446;SDS011;27185;52.040;4.490;2023-06-22T13:23:33;15.77;;;12.13;;
41446;SDS011;27185;52.040;4.490;2023-06-22T13:26:20;18.50;;;12.65;;
41446;SDS011;27185;52.040;4.490;2023-06-22T13:29:06;17.02;;;12.80;;
41446;SDS011;27185;52.040;4.490;2023-06-22T13:31:51;12.77;;;10.93;;
41446;SDS011;27185;52.040;4.490;2023-06-22T13:34:37;15.05;;;10.95;;
41446;SDS011;27185;52.040;4.490;2023-06-22T13:37:23;15.65;;;11.45;;
41446;SDS011;27185;52.040;4.490;2023-06-22T13:40:08;13.25;;;11.85;;
41446;SDS011;27185;52.040;4.490;2023-06-22T13:42:54;12.13;;;10.52;;
41446;SDS011;27185;52.040;4.490;2023-06-22T13:45:40;13.20;;;9.75;;
41446;SDS011;27185;52.040;4.490;2023-06-22T13:48:26;12.57;;;10.45;;
41446;SDS011;27185;52.040;4.490;2023-06-22T13:51:13;12.93;;;10.13;;
41446;SDS011;27185;52.040;4.490;2023-06-22T13:53:59;14.20;;;10.77;;
41446;SDS011;27185;52.040;4.490;2023-06-22T13:56:44;16.02;;;12.70;;
41446;SDS011;27185;52.040;4.490;2023-06-22T13:59:30;12.77;;;10.13;;
41446;SDS011;27185;52.040;4.490;2023-06-22T14:02:15;14.60;;;9.82;;
41446;SDS011;27185;52.040;4.490;2023-06-22T14:05:01;12.57;;;9.77;;
41446;SDS011;27185;52.040;4.490;2023-06-22T14:07:47;10.85;;;9.73;;
41446;SDS011;27185;52.040;4.490;2023-06-22T14:10:33;12.15;;;9.70;;
41446;SDS011;27185;52.040;4.490;2023-06-22T14:13:18;11.20;;;9.05;;
41446;SDS011;27185;52.040;4.490;2023-06-22T14:16:04;13.13;;;10.00;;
41446;SDS011;27185;52.040;4.490;2023-06-22T14:18:50;12.82;;;9.15;;
41446;SDS011;27185;52.040;4.490;2023-06-22T14:21:36;10.93;;;9.32;;
41446;SDS011;27185;52.040;4.490;2023-06-22T14:24:22;14.45;;;9.80;;
41446;SDS011;27185;52.040;4.490;2023-06-22T14:27:08;9.63;;;8.43;;
41446;SDS011;27185;52.040;4.490;2023-06-22T14:29:54;13.27;;;8.98;;
41446;SDS011;27185;52.040;4.490;2023-06-22T14:32:39;15.18;;;10.57;;
41446;SDS011;27185;52.040;4.490;2023-06-22T14:35:25;10.57;;;9.25;;
41446;SDS011;27185;52.040;4.490;2023-06-22T14:38:10;10.93;;;8.23;;
41446;SDS011;27185;52.040;4.490;2023-06-22T14:40:56;11.27;;;8.65;;
41446;SDS011;27185;52.040;4.490;2023-06-22T14:43:45;10.48;;;9.15;;
41446;SDS011;27185;52.040;4.490;2023-06-22T14:46:31;9.30;;;8.30;;
41446;SDS011;27185;52.040;4.490;2023-06-22T14:49:17;8.68;;;7.35;;
41446;SDS011;27185;52.040;4.490;2023-06-22T14:52:03;12.18;;;9.35;;
41446;SDS011;27185;52.040;4.490;2023-06-22T14:54:48;10.15;;;7.70;;
41446;SDS011;27185;52.040;4.490;2023-06-22T14:57:37;11.90;;;8.45;;
41446;SDS011;27185;52.040;4.490;2023-06-22T15:00:22;9.98;;;8.43;;
41446;SDS011;27185;52.040;4.490;2023-06-22T15:03:08;12.20;;;8.32;;
41446;SDS011;27185;52.040;4.490;2023-06-22T15:05:56;11.82;;;9.48;;
41446;SDS011;27185;52.040;4.490;2023-06-22T15:08:42;10.38;;;9.20;;
41446;SDS011;27185;52.040;4.490;2023-06-22T15:11:27;9.15;;;8.23;;
41446;SDS011;27185;52.040;4.490;2023-06-22T15:14:13;10.98;;;8.70;;
41446;SDS011;27185;52.040;4.490;2023-06-22T15:16:59;13.73;;;10.75;;
41446;SDS011;27185;52.040;4.490;2023-06-22T15:19:44;13.27;;;11.88;;
41446;SDS011;27185;52.040;4.490;2023-06-22T15:22:30;12.35;;;10.73;;
41446;SDS011;27185;52.040;4.490;2023-06-22T15:25:16;11.98;;;10.00;;
41446;SDS011;27185;52.040;4.490;2023-06-22T15:28:01;14.10;;;11.05;;
41446;SDS011;27185;52.040;4.490;2023-06-22T15:30:50;14.05;;;10.65;;
41446;SDS011;27185;52.040;4.490;2023-06-22T15:33:36;11.23;;;10.02;;
41446;SDS011;27185;52.040;4.490;2023-06-22T15:36:22;9.55;;;8.52;;
41446;SDS011;27185;52.040;4.490;2023-06-22T15:39:08;10.32;;;8.82;;
41446;SDS011;27185;52.040;4.490;2023-06-22T15:41:53;10.40;;;7.78;;
41446;SDS011;27185;52.040;4.490;2023-06-22T15:44:39;11.15;;;8.45;;
41446;SDS011;27185;52.040;4.490;2023-06-22T15:47:24;10.77;;;8.95;;
41446;SDS011;27185;52.040;4.490;2023-06-22T15:50:10;8.25;;;7.45;;
41446;SDS011;27185;52.040;4.490;2023-06-22T15:52:55;8.85;;;6.97;;
41446;SDS011;27185;52.040;4.490;2023-06-22T15:55:41;10.57;;;7.00;;
41446;SDS011;27185;52.040;4.490;2023-06-22T15:58:27;7.93;;;6.93;;
41446;SDS011;27185;52.040;4.490;2023-06-22T16:01:12;10.98;;;7.18;;
41446;SDS011;27185;52.040;4.490;2023-06-22T16:03:58;8.10;;;6.90;;
41446;SDS011;27185;52.040;4.490;2023-06-22T16:06:43;10.75;;;7.03;;
41446;SDS011;27185;52.040;4.490;2023-06-22T16:09:29;9.13;;;7.72;;
41446;SDS011;27185;52.040;4.490;2023-06-22T16:12:15;10.02;;;8.18;;
41446;SDS011;27185;52.040;4.490;2023-06-22T16:15:02;7.68;;;6.88;;
41446;SDS011;27185;52.040;4.490;2023-06-22T16:17:48;8.33;;;6.57;;
41446;SDS011;27185;52.040;4.490;2023-06-22T16:20:33;8.73;;;6.32;;
41446;SDS011;27185;52.040;4.490;2023-06-22T16:23:19;8.10;;;6.32;;